Time;durP1;ratioP1;P1;durP2;ratioP2;P2;SDS_P1;SDS_P2;PMS_P1;PMS_P2;Temp;Humidity;BMP_temperature;BMP_pressure;BME280_temperature;BME280_humidity;BME280_pressure;Samples;Min_cycle;Max_cycle;Signal;HPM_P1;HPM_P2
2022/11/22 00:01:32;;;;;;;;;;;2.20;99.90;;;;;;5019457;28;20015;-75
2022/11/22 00:03:58;;;;;;;;;;;2.20;99.90;;;;;;5016853;28;19928;-76
2022/11/22 00:06:23;;;;;;;;;;;2.30;99.90;;;;;;5033079;28;19940;-76
2022/11/22 00:08:49;;;;;;;;;;;2.20;99.90;;;;;;5001870;28;19956;-76
2022/11/22 00:11:14;;;;;;;;;;;2.20;99.90;;;;;;5030999;28;19921;-76
2022/11/22 00:13:40;;;;;;;;;;;2.20;99.90;;;;;;5030903;28;20077;-76
2022/11/22 00:16:05;;;;;;;;;;;3.40;99.90;;;;;;5033353;28;19932;-75
2022/11/22 00:18:31;;;;;;;;;;;2.20;99.90;;;;;;5030175;28;20035;-76
2022/11/22 00:21:02;;;;;;;;;;;2.20;99.90;;;;;;5010789;28;20390;-76
2022/11/22 00:23:28;;;;;;;;;;;2.20;99.90;;;;;;5032149;28;19921;-76
2022/11/22 00:25:53;;;;;;;;;;;2.90;99.90;;;;;;5030629;28;19932;-76
2022/11/22 00:28:19;;;;;;;;;;;2.20;99.90;;;;;;5029467;28;20003;-76
2022/11/22 00:30:45;;;;;;;;;;;2.20;99.90;;;;;;5031900;28;20455;-76
2022/11/22 00:33:10;;;;;;;;;;;2.20;99.90;;;;;;5031652;28;19931;-76
2022/11/22 00:35:36;;;;;;;;;;;2.20;99.90;;;;;;5004226;28;20363;-75
2022/11/22 00:38:02;;;;;;;;;;;2.20;99.90;;;;;;5008188;28;20112;-76
2022/11/22 00:40:27;;;;;;;;;;;3.20;99.90;;;;;;4976608;28;19928;-76
2022/11/22 00:42:53;;;;;;;;;;;2.20;99.90;;;;;;4989877;28;19980;-75
2022/11/22 00:45:19;;;;;;;;;;;2.80;99.90;;;;;;4991440;28;19933;-75
2022/11/22 00:47:44;;;;;;;;;;;2.20;99.90;;;;;;4989857;28;19921;-76
2022/11/22 00:50:10;;;;;;;;;;;2.30;99.90;;;;;;4958530;28;20198;-76
2022/11/22 00:52:35;;;;;;;;;;;2.30;99.90;;;;;;4991015;28;19929;-76
2022/11/22 00:55:01;;;;;;;;;;;2.80;99.90;;;;;;4978129;28;19925;-76
2022/11/22 00:57:26;;;;;;;;;;;3.10;99.90;;;;;;4982153;28;19922;-75
2022/11/22 00:59:52;;;;;;;;;;;2.30;99.90;;;;;;4974256;28;20282;-75
2022/11/22 01:02:18;;;;;;;;;;;2.30;99.90;;;;;;4975316;28;20323;-75
2022/11/22 01:04:43;;;;;;;;;;;2.40;99.90;;;;;;4992575;28;19957;-75
2022/11/22 01:07:09;;;;;;;;;;;2.70;99.90;;;;;;4992358;28;19925;-76
2022/11/22 01:09:34;;;;;;;;;;;2.80;99.90;;;;;;4991178;28;19949;-76
2022/11/22 01:12:00;;;;;;;;;;;2.40;99.90;;;;;;4991392;28;20347;-76
2022/11/22 01:14:25;;;;;;;;;;;2.40;99.90;;;;;;4974060;28;20523;-76
2022/11/22 01:16:51;;;;;;;;;;;2.90;99.90;;;;;;4974413;28;19979;-75
2022/11/22 01:19:16;;;;;;;;;;;2.80;99.90;;;;;;4990752;28;19997;-75
2022/11/22 01:21:42;;;;;;;;;;;2.40;99.90;;;;;;4985820;28;19922;-76
2022/11/22 01:24:08;;;;;;;;;;;2.60;99.90;;;;;;4975147;28;20334;-76
2022/11/22 01:26:34;;;;;;;;;;;2.40;99.90;;;;;;4974647;28;19984;-76
2022/11/22 01:28:59;;;;;;;;;;;2.40;99.90;;;;;;4972939;28;19956;-76
2022/11/22 01:31:25;;;;;;;;;;;2.40;99.90;;;;;;4971866;28;19929;-75
2022/11/22 01:33:50;;;;;;;;;;;2.40;99.90;;;;;;4962455;28;19921;-75
2022/11/22 01:36:16;;;;;;;;;;;3.30;99.90;;;;;;5005152;28;19925;-76
2022/11/22 01:38:41;;;;;;;;;;;2.40;99.90;;;;;;5006559;28;20008;-76
2022/11/22 01:41:07;;;;;;;;;;;2.80;99.90;;;;;;4993386;28;20414;-75
2022/11/22 01:43:33;;;;;;;;;;;2.50;99.90;;;;;;4996546;28;20114;-75
2022/11/22 01:46:06;;;;;;;;;;;2.50;99.90;;;;;;5023782;28;19925;-75
2022/11/22 01:48:41;;;;;;;;;;;2.50;99.90;;;;;;5010841;28;19944;-75
2022/11/22 01:51:13;;;;;;;;;;;2.50;99.90;;;;;;4994482;28;20008;-75
2022/11/22 01:53:38;;;;;;;;;;;2.50;99.90;;;;;;4993017;28;19983;-75
2022/11/22 01:56:07;;;;;;;;;;;3.10;99.90;;;;;;4991838;28;19929;-76
2022/11/22 01:58:34;;;;;;;;;;;2.50;99.90;;;;;;5009254;28;19921;-75
2022/11/22 02:01:00;;;;;;;;;;;2.50;99.90;;;;;;5011150;28;19983;-76
2022/11/22 02:03:27;;;;;;;;;;;2.50;99.90;;;;;;4999013;28;19952;-76
2022/11/22 02:05:53;;;;;;;;;;;2.50;99.90;;;;;;5010174;28;20011;-76
2022/11/22 02:08:31;;;;;;;;;;;2.60;99.90;;;;;;5011781;28;19999;-76
2022/11/22 02:10:58;;;;;;;;;;;2.60;99.90;;;;;;4994071;28;19929;-76
2022/11/22 02:13:24;;;;;;;;;;;2.60;99.90;;;;;;5009785;28;19922;-76
2022/11/22 02:15:50;;;;;;;;;;;2.60;99.90;;;;;;4992382;28;19936;-75
2022/11/22 02:18:16;;;;;;;;;;;2.60;99.90;;;;;;4994445;28;20019;-76
2022/11/22 02:20:42;;;;;;;;;;;2.60;99.90;;;;;;4992919;28;20345;-75
2022/11/22 02:23:29;;;;;;;;;;;3.20;99.90;;;;;;5011644;28;20021;-76
2022/11/22 02:25:59;;;;;;;;;;;2.70;99.90;;;;;;5010229;28;19939;-76
2022/11/22 02:28:27;;;;;;;;;;;2.70;99.90;;;;;;4993272;28;19921;-75
2022/11/22 02:30:53;;;;;;;;;;;3.00;99.90;;;;;;5009435;28;20544;-75
2022/11/22 02:33:18;;;;;;;;;;;3.60;99.90;;;;;;5012335;28;20038;-76
2022/11/22 02:35:44;;;;;;;;;;;2.70;99.90;;;;;;4992375;28;19987;-75
2022/11/22 02:38:11;;;;;;;;;;;2.70;99.90;;;;;;5009416;28;19960;-76
2022/11/22 02:40:58;;;;;;;;;;;2.70;99.90;;;;;;5010955;28;19932;-76
2022/11/22 02:43:26;;;;;;;;;;;2.70;99.90;;;;;;4997477;28;19921;-76
2022/11/22 02:45:52;;;;;;;;;;;2.70;99.90;;;;;;4996593;28;19936;-76
2022/11/22 02:48:18;;;;;;;;;;;2.90;99.90;;;;;;5030359;28;19921;-76
2022/11/22 02:50:43;;;;;;;;;;;2.70;99.90;;;;;;5014815;28;19921;-76
2022/11/22 02:53:09;;;;;;;;;;;3.00;99.90;;;;;;5014194;28;20374;-75
2022/11/22 02:55:35;;;;;;;;;;;3.50;99.90;;;;;;5005381;28;20389;-76
2022/11/22 02:58:01;;;;;;;;;;;2.80;99.90;;;;;;4992765;28;19933;-75
2022/11/22 03:00:27;;;;;;;;;;;2.80;99.90;;;;;;4992452;28;20581;-76
2022/11/22 03:02:52;;;;;;;;;;;2.80;99.90;;;;;;4982206;28;19925;-76
2022/11/22 03:05:18;;;;;;;;;;;2.80;99.90;;;;;;5015926;28;19925;-76
2022/11/22 03:07:43;;;;;;;;;;;2.80;99.90;;;;;;4993444;28;20394;-75
2022/11/22 03:10:09;;;;;;;;;;;2.90;99.90;;;;;;4997466;28;19921;-76
2022/11/22 03:12:35;;;;;;;;;;;3.30;99.90;;;;;;5004913;28;19925;-76
2022/11/22 03:15:00;;;;;;;;;;;2.90;99.90;;;;;;4994079;28;19949;-75
2022/11/22 03:17:26;;;;;;;;;;;3.50;99.90;;;;;;4997127;28;19921;-76
2022/11/22 03:19:51;;;;;;;;;;;3.00;99.90;;;;;;4998526;28;19943;-75
2022/11/22 03:22:17;;;;;;;;;;;3.00;99.90;;;;;;5010947;28;19969;-76
2022/11/22 03:24:42;;;;;;;;;;;3.10;99.90;;;;;;4977400;28;20452;-76
2022/11/22 03:27:08;;;;;;;;;;;3.00;99.90;;;;;;4993533;28;20433;-76
2022/11/22 03:29:34;;;;;;;;;;;3.20;99.90;;;;;;5009115;28;19925;-76
2022/11/22 03:31:59;;;;;;;;;;;3.00;99.90;;;;;;5012885;28;19989;-76
2022/11/22 03:34:25;;;;;;;;;;;3.70;99.90;;;;;;4997188;28;19952;-75
2022/11/22 03:36:51;;;;;;;;;;;3.00;99.90;;;;;;4994240;28;19932;-76
2022/11/22 03:39:16;;;;;;;;;;;3.00;99.90;;;;;;4997631;28;19932;-76
2022/11/22 03:41:42;;;;;;;;;;;3.10;99.90;;;;;;4972956;28;19940;-76
2022/11/22 03:44:07;;;;;;;;;;;3.10;99.90;;;;;;5000582;28;19922;-76
2022/11/22 03:46:33;;;;;;;;;;;3.60;99.90;;;;;;5007255;28;19926;-76
2022/11/22 03:48:58;;;;;;;;;;;3.10;99.90;;;;;;5012774;28;19928;-76
2022/11/22 03:51:25;;;;;;;;;;;3.10;99.90;;;;;;4981515;28;19921;-76
2022/11/22 03:53:50;;;;;;;;;;;3.40;99.90;;;;;;4994855;28;19926;-76
2022/11/22 03:56:16;;;;;;;;;;;3.20;99.90;;;;;;4994814;28;19929;-76
2022/11/22 03:58:41;;;;;;;;;;;3.20;99.90;;;;;;4989911;28;19972;-76
2022/11/22 04:01:07;;;;;;;;;;;3.20;99.90;;;;;;4993446;28;19938;-76
2022/11/22 04:03:32;;;;;;;;;;;3.20;99.90;;;;;;5016204;28;20353;-76
2022/11/22 04:05:58;;;;;;;;;;;3.40;99.90;;;;;;5011102;28;19936;-76
2022/11/22 04:08:23;;;;;;;;;;;3.20;99.90;;;;;;5014238;28;20445;-76
2022/11/22 04:10:49;;;;;;;;;;;3.20;99.90;;;;;;4982030;28;19922;-75
2022/11/22 04:13:15;;;;;;;;;;;3.20;99.90;;;;;;4999041;28;19921;-76
2022/11/22 04:15:40;;;;;;;;;;;2.80;99.90;;;;;;4997828;28;19948;-75
2022/11/22 04:18:09;;;;;;;;;;;3.30;99.90;;;;;;4994742;28;19925;-75
2022/11/22 04:23:20;;;;;;;;;;;3.70;99.90;;;;;;5014193;28;20230;-75
2022/11/22 04:25:47;;;;;;;;;;;3.20;99.90;;;;;;4988154;28;19929;-75
2022/11/22 04:28:14;;;;;;;;;;;4.20;99.90;;;;;;5013195;28;19922;-75
2022/11/22 04:33:24;;;;;;;;;;;3.40;99.90;;;;;;5032306;28;20230;-75
2022/11/22 04:35:52;;;;;;;;;;;3.30;99.90;;;;;;4993530;28;20227;-75
2022/11/22 04:38:17;;;;;;;;;;;3.20;99.90;;;;;;4992051;28;19979;-76
2022/11/22 04:40:43;;;;;;;;;;;3.20;99.90;;;;;;4996750;28;19921;-76
2022/11/22 04:46:14;;;;;;;;;;;3.30;99.90;;;;;;5001127;28;19932;-76
2022/11/22 04:48:40;;;;;;;;;;;3.30;99.90;;;;;;5001044;28;20397;-76
2022/11/22 04:53:50;;;;;;;;;;;3.40;99.90;;;;;;5009729;28;19957;-75
2022/11/22 04:56:16;;;;;;;;;;;3.40;99.90;;;;;;5012233;28;19964;-75
2022/11/22 04:58:42;;;;;;;;;;;5.00;99.90;;;;;;4985938;28;20029;-76
2022/11/22 05:01:08;;;;;;;;;;;3.50;99.90;;;;;;5008100;28;20267;-76
2022/11/22 05:03:33;;;;;;;;;;;3.50;99.90;;;;;;5010835;28;20072;-76
2022/11/22 05:06:00;;;;;;;;;;;3.50;99.90;;;;;;4994743;28;19925;-76
2022/11/22 05:08:25;;;;;;;;;;;3.50;99.90;;;;;;5011127;28;19932;-76
2022/11/22 05:10:57;;;;;;;;;;;3.60;99.90;;;;;;4994167;28;19929;-76
2022/11/22 05:13:24;;;;;;;;;;;3.60;99.90;;;;;;4993783;28;19931;-76
2022/11/22 05:15:52;;;;;;;;;;;4.20;99.90;;;;;;5011659;28;20397;-75
2022/11/22 05:18:18;;;;;;;;;;;4.00;99.90;;;;;;5010249;28;19936;-76
2022/11/22 05:20:44;;;;;;;;;;;3.60;99.90;;;;;;5011415;28;20408;-76
2022/11/22 05:25:54;;;;;;;;;;;3.80;99.90;;;;;;5009072;28;19944;-76
2022/11/22 05:28:19;;;;;;;;;;;3.80;99.90;;;;;;4978458;28;19921;-76
2022/11/22 05:30:45;;;;;;;;;;;3.80;99.90;;;;;;5011936;28;19956;-76
2022/11/22 05:33:10;;;;;;;;;;;4.40;99.90;;;;;;4994351;28;20397;-77
2022/11/22 05:35:36;;;;;;;;;;;3.90;99.90;;;;;;4997510;28;19925;-75
2022/11/22 05:38:02;;;;;;;;;;;3.90;99.90;;;;;;5011822;28;19928;-76
2022/11/22 05:40:27;;;;;;;;;;;3.90;99.90;;;;;;5011290;28;20024;-76
2022/11/22 05:42:53;;;;;;;;;;;4.00;99.90;;;;;;5026288;28;19921;-75
2022/11/22 05:45:18;;;;;;;;;;;4.00;99.90;;;;;;4992516;28;20381;-76
2022/11/22 05:47:44;;;;;;;;;;;4.20;99.90;;;;;;5028093;28;19955;-76
2022/11/22 05:50:10;;;;;;;;;;;4.00;99.90;;;;;;4991371;28;19983;-76
2022/11/22 05:52:35;;;;;;;;;;;4.50;99.90;;;;;;4984585;28;20406;-76
2022/11/22 05:55:01;;;;;;;;;;;4.40;99.90;;;;;;5018095;28;19996;-76
2022/11/22 05:57:26;;;;;;;;;;;4.10;99.90;;;;;;5022764;28;19968;-76
2022/11/22 05:59:52;;;;;;;;;;;4.10;99.90;;;;;;5022239;28;19933;-76
2022/11/22 06:02:18;;;;;;;;;;;4.60;99.90;;;;;;5005740;28;20249;-76
2022/11/22 06:04:43;;;;;;;;;;;4.10;99.90;;;;;;5014581;28;19932;-76
2022/11/22 06:07:09;;;;;;;;;;;4.70;99.90;;;;;;5030499;28;19975;-76
2022/11/22 06:09:34;;;;;;;;;;;4.20;99.90;;;;;;5038335;28;19925;-75
2022/11/22 06:12:00;;;;;;;;;;;4.80;99.90;;;;;;5022413;28;19925;-76
2022/11/22 06:14:25;;;;;;;;;;;4.30;99.90;;;;;;5016825;28;19971;-76
2022/11/22 06:16:51;;;;;;;;;;;4.20;99.90;;;;;;5029850;28;19928;-76
2022/11/22 06:19:16;;;;;;;;;;;4.20;99.90;;;;;;5003785;28;19921;-76
2022/11/22 06:21:42;;;;;;;;;;;4.20;99.90;;;;;;5014233;28;19933;-77
2022/11/22 06:24:08;;;;;;;;;;;4.20;99.90;;;;;;4999979;28;19928;-76
2022/11/22 06:26:33;;;;;;;;;;;4.30;99.90;;;;;;5015811;28;20079;-76
2022/11/22 06:28:59;;;;;;;;;;;4.30;99.90;;;;;;5018122;28;19921;-76
2022/11/22 06:31:25;;;;;;;;;;;4.30;99.90;;;;;;4998643;28;20393;-76
2022/11/22 06:33:55;;;;;;;;;;;4.30;99.90;;;;;;5003009;28;20271;-76
2022/11/22 06:36:23;;;;;;;;;;;4.40;99.90;;;;;;5016713;28;20030;-76
2022/11/22 06:38:48;;;;;;;;;;;4.40;99.90;;;;;;5018158;28;19921;-76
2022/11/22 06:41:15;;;;;;;;;;;4.50;99.90;;;;;;5002270;28;19921;-76
2022/11/22 06:43:41;;;;;;;;;;;4.50;99.90;;;;;;5003154;28;19921;-76
2022/11/22 06:46:08;;;;;;;;;;;4.30;99.90;;;;;;5018878;28;20904;-76
2022/11/22 06:48:35;;;;;;;;;;;4.30;99.90;;;;;;5015161;28;19924;-76
2022/11/22 06:51:02;;;;;;;;;;;4.30;99.90;;;;;;4999239;28;20342;-76
2022/11/22 06:53:31;;;;;;;;;;;4.30;99.90;;;;;;5016509;28;19921;-76
2022/11/22 06:56:03;;;;;;;;;;;4.50;99.90;;;;;;5001422;28;20055;-76
2022/11/22 06:58:28;;;;;;;;;;;4.30;99.90;;;;;;5030087;28;19931;-76
2022/11/22 07:01:01;;;;;;;;;;;4.30;99.90;;;;;;5008542;28;19921;-76
2022/11/22 07:03:27;;;;;;;;;;;4.40;99.90;;;;;;5006447;28;20538;-76
2022/11/22 07:05:53;;;;;;;;;;;4.60;99.90;;;;;;5001952;28;19994;-76
2022/11/22 07:08:18;;;;;;;;;;;4.50;99.90;;;;;;5001279;28;20007;-76
2022/11/22 07:10:44;;;;;;;;;;;4.40;99.90;;;;;;5029595;28;19922;-76
2022/11/22 07:13:10;;;;;;;;;;;4.50;99.90;;;;;;5010827;28;20631;-76
2022/11/22 07:15:35;;;;;;;;;;;4.50;99.90;;;;;;5001222;28;19929;-76
2022/11/22 07:18:01;;;;;;;;;;;4.50;99.90;;;;;;5005780;28;19925;-76
2022/11/22 07:20:26;;;;;;;;;;;5.00;99.90;;;;;;5014363;28;19940;-76
2022/11/22 07:22:52;;;;;;;;;;;4.90;99.90;;;;;;5002755;28;19926;-76
2022/11/22 07:25:17;;;;;;;;;;;4.50;99.90;;;;;;5014381;28;19995;-76
2022/11/22 07:27:43;;;;;;;;;;;4.50;99.90;;;;;;4981855;28;19925;-76
2022/11/22 07:30:09;;;;;;;;;;;4.50;99.90;;;;;;5003629;28;19921;-76
2022/11/22 07:32:34;;;;;;;;;;;4.50;99.90;;;;;;5019773;28;19951;-76
2022/11/22 07:35:00;;;;;;;;;;;4.80;99.90;;;;;;4997898;28;20426;-76
2022/11/22 07:37:25;;;;;;;;;;;4.50;99.90;;;;;;5007143;28;19952;-77
2022/11/22 07:39:51;;;;;;;;;;;4.50;99.90;;;;;;4988995;28;20466;-76
2022/11/22 07:42:17;;;;;;;;;;;4.60;99.90;;;;;;4984187;28;19979;-76
2022/11/22 07:44:42;;;;;;;;;;;4.50;99.90;;;;;;4999140;28;20051;-76
2022/11/22 07:47:08;;;;;;;;;;;4.60;99.90;;;;;;5006718;28;19942;-76
2022/11/22 07:49:33;;;;;;;;;;;4.60;99.90;;;;;;4988438;28;19929;-76
2022/11/22 07:51:59;;;;;;;;;;;4.60;99.90;;;;;;4997600;28;19979;-76
2022/11/22 07:54:24;;;;;;;;;;;4.60;99.90;;;;;;4987706;28;20261;-76
2022/11/22 07:56:50;;;;;;;;;;;4.60;99.90;;;;;;4990505;28;19994;-76
2022/11/22 07:59:16;;;;;;;;;;;4.70;99.90;;;;;;5002157;28;19926;-76
2022/11/22 08:01:41;;;;;;;;;;;4.60;99.90;;;;;;4990881;28;20422;-76
2022/11/22 08:04:07;;;;;;;;;;;4.60;99.90;;;;;;4984674;28;19936;-76
2022/11/22 08:06:32;;;;;;;;;;;4.60;99.90;;;;;;5031316;28;19933;-77
2022/11/22 08:08:58;;;;;;;;;;;4.60;99.90;;;;;;4969518;28;19991;-77
2022/11/22 08:11:23;;;;;;;;;;;5.40;99.90;;;;;;5005050;28;19980;-78
2022/11/22 08:13:49;;;;;;;;;;;4.70;99.90;;;;;;4987931;28;19932;-77
2022/11/22 08:16:15;;;;;;;;;;;4.60;99.90;;;;;;4998146;28;19928;-77
2022/11/22 08:18:44;;;;;;;;;;;4.50;99.90;;;;;;5003823;28;19932;-77
2022/11/22 08:21:11;;;;;;;;;;;4.50;99.90;;;;;;5021248;28;19921;-77
2022/11/22 08:23:37;;;;;;;;;;;4.60;99.90;;;;;;5005475;28;20040;-77
2022/11/22 08:26:03;;;;;;;;;;;4.50;99.90;;;;;;5003521;28;19996;-77
2022/11/22 08:28:29;;;;;;;;;;;4.50;99.90;;;;;;4982816;28;19926;-76
2022/11/22 08:31:02;;;;;;;;;;;4.60;99.90;;;;;;4980315;28;20005;-78
2022/11/22 08:33:27;;;;;;;;;;;4.60;99.90;;;;;;5022502;28;20008;-78
2022/11/22 08:35:53;;;;;;;;;;;5.00;99.90;;;;;;4962027;28;20057;-78
2022/11/22 08:38:19;;;;;;;;;;;4.70;99.90;;;;;;4979765;28;19937;-78
2022/11/22 08:40:45;;;;;;;;;;;3.50;99.90;;;;;;4976242;28;19964;-77
2022/11/22 08:43:10;;;;;;;;;;;5.00;99.90;;;;;;4972883;28;20479;-78
2022/11/22 08:45:36;;;;;;;;;;;6.10;99.90;;;;;;4996159;28;20487;-78
2022/11/22 08:48:01;;;;;;;;;;;6.10;99.90;;;;;;5008139;28;19987;-77
2022/11/22 08:50:27;;;;;;;;;;;6.90;99.90;;;;;;4996408;28;19987;-77
2022/11/22 08:52:53;;;;;;;;;;;6.70;99.90;;;;;;4994602;28;19932;-80
2022/11/22 08:55:19;;;;;;;;;;;8.20;99.90;;;;;;4977524;28;19921;-79
2022/11/22 08:57:44;;;;;;;;;;;8.50;99.90;;;;;;4993357;28;20320;-80
2022/11/22 09:00:10;;;;;;;;;;;9.10;99.90;;;;;;4995025;28;19921;-79
2022/11/22 09:02:36;;;;;;;;;;;9.40;99.90;;;;;;5008531;28;19929;-79
2022/11/22 09:05:01;;;;;;;;;;;9.30;99.90;;;;;;4973989;28;19941;-79
2022/11/22 09:07:28;;;;;;;;;;;9.60;99.90;;;;;;4974952;28;19929;-79
2022/11/22 09:09:53;;;;;;;;;;;9.70;99.90;;;;;;4980239;28;19964;-78
2022/11/22 09:12:19;;;;;;;;;;;9.80;99.90;;;;;;4996985;28;20038;-80
2022/11/22 09:14:45;;;;;;;;;;;9.80;99.90;;;;;;5002957;28;19933;-78
2022/11/22 09:17:10;;;;;;;;;;;9.50;99.90;;;;;;5027242;28;20792;-79
2022/11/22 09:19:36;;;;;;;;;;;9.10;99.90;;;;;;4982563;28;19921;-80
2022/11/22 09:22:01;;;;;;;;;;;8.80;99.90;;;;;;4983039;28;19921;-81
2022/11/22 09:24:27;;;;;;;;;;;8.50;99.90;;;;;;5016767;28;20370;-81
2022/11/22 09:26:52;;;;;;;;;;;8.00;99.90;;;;;;4997832;28;19957;-81
2022/11/22 09:29:18;;;;;;;;;;;7.60;99.90;;;;;;4998446;28;19979;-80
2022/11/22 09:31:44;;;;;;;;;;;7.30;99.90;;;;;;5000577;28;19999;-80
2022/11/22 09:34:09;;;;;;;;;;;7.10;99.90;;;;;;5016488;28;19921;-79
2022/11/22 09:36:35;;;;;;;;;;;6.80;99.90;;;;;;4989727;28;19933;-79
2022/11/22 09:39:00;;;;;;;;;;;6.60;99.90;;;;;;5001492;28;19912;-80
2022/11/22 09:41:51;;;;;;;;;;;6.50;99.90;;;;;;5022402;28;20245;-80
2022/11/22 09:44:17;;;;;;;;;;;6.40;99.90;;;;;;5031246;28;19913;-79
2022/11/22 09:46:50;;;;;;;;;;;6.40;99.90;;;;;;5037483;28;19926;-79
2022/11/22 09:49:25;;;;;;;;;;;6.30;99.90;;;;;;5019324;28;19913;-79
2022/11/22 09:51:58;;;;;;;;;;;6.30;99.90;;;;;;5030290;28;19932;-79
2022/11/22 09:54:26;;;;;;;;;;;6.30;99.90;;;;;;5033138;28;19972;-80
2022/11/22 09:56:53;;;;;;;;;;;6.20;99.90;;;;;;4994191;28;20498;-79
2022/11/22 09:59:20;;;;;;;;;;;6.20;99.90;;;;;;5010873;28;19993;-79
2022/11/22 10:01:52;;;;;;;;;;;6.20;99.90;;;;;;5009090;28;19921;-79
2022/11/22 10:04:21;;;;;;;;;;;6.20;99.90;;;;;;5001569;28;20385;-79
2022/11/22 10:06:52;;;;;;;;;;;6.20;99.90;;;;;;5012716;28;19914;-79
2022/11/22 10:09:18;;;;;;;;;;;6.20;99.90;;;;;;5016645;28;20023;-79
2022/11/22 10:11:46;;;;;;;;;;;6.20;99.90;;;;;;5011449;28;19989;-79
2022/11/22 10:14:33;;;;;;;;;;;6.30;99.90;;;;;;4989957;28;19981;-79
2022/11/22 10:17:01;;;;;;;;;;;6.30;99.90;;;;;;5013088;28;19922;-79
2022/11/22 10:20:06;;;;;;;;;;;6.40;99.90;;;;;;5018193;28;19959;-79
2022/11/22 10:22:32;;;;;;;;;;;6.40;99.90;;;;;;4920529;29;20381;-80
2022/11/22 10:24:58;;;;;;;;;;;6.40;99.90;;;;;;4938665;29;19973;-79
2022/11/22 10:27:28;;;;;;;;;;;6.30;99.90;;;;;;4962131;28;20412;-79
2022/11/22 10:29:56;;;;;;;;;;;6.70;99.90;;;;;;4998935;28;19925;-80
2022/11/22 10:32:39;;;;;;;;;;;6.60;99.90;;;;;;5019884;28;19960;-80
2022/11/22 10:35:22;;;;;;;;;;;6.30;99.90;;;;;;5011546;28;20318;-80
2022/11/22 10:37:47;;;;;;;;;;;6.30;99.90;;;;;;5008338;28;20288;-79
2022/11/22 10:40:16;;;;;;;;;;;6.40;99.90;;;;;;5004181;28;19966;-79
2022/11/22 10:42:59;;;;;;;;;;;6.40;99.90;;;;;;5000983;28;19933;-80
2022/11/22 10:45:28;;;;;;;;;;;6.40;99.90;;;;;;4996831;28;19930;-80
2022/11/22 10:48:09;;;;;;;;;;;6.50;99.90;;;;;;4998643;28;19925;-80
2022/11/22 10:50:40;;;;;;;;;;;6.60;99.90;;;;;;5020085;28;19921;-80
2022/11/22 10:53:25;;;;;;;;;;;6.70;99.90;;;;;;5041779;28;19916;-80
2022/11/22 10:55:57;;;;;;;;;;;6.80;99.90;;;;;;5010704;28;19987;-79
2022/11/22 10:58:34;;;;;;;;;;;6.80;99.90;;;;;;5017307;28;19925;-79
2022/11/22 11:01:16;;;;;;;;;;;6.80;99.90;;;;;;5021415;28;20026;-79
2022/11/22 11:03:46;;;;;;;;;;;6.90;99.90;;;;;;4992234;28;19925;-79
2022/11/22 11:06:20;;;;;;;;;;;6.90;99.90;;;;;;5003628;28;19929;-79
2022/11/22 11:08:49;;;;;;;;;;;6.90;99.90;;;;;;5000692;28;19925;-79
2022/11/22 11:11:15;;;;;;;;;;;6.90;99.90;;;;;;5022405;28;20333;-79
2022/11/22 11:13:42;;;;;;;;;;;6.90;99.90;;;;;;5011586;28;19928;-79
2022/11/22 11:16:09;;;;;;;;;;;6.90;99.90;;;;;;4996084;28;19929;-79
2022/11/22 11:18:38;;;;;;;;;;;7.90;99.90;;;;;;5017669;28;19929;-79
2022/11/22 11:21:05;;;;;;;;;;;7.00;99.90;;;;;;5003162;28;19925;-80
2022/11/22 11:23:31;;;;;;;;;;;7.00;99.90;;;;;;5021464;28;20390;-79
2022/11/22 11:26:12;;;;;;;;;;;7.10;99.90;;;;;;4993576;28;19921;-79
2022/11/22 11:28:38;;;;;;;;;;;7.10;99.90;;;;;;5016741;28;20020;-78
2022/11/22 11:31:07;;;;;;;;;;;7.10;99.90;;;;;;5028365;28;19957;-80
2022/11/22 11:33:36;;;;;;;;;;;7.10;99.90;;;;;;5017530;28;20004;-79
2022/11/22 11:36:17;;;;;;;;;;;7.10;99.90;;;;;;5018159;28;19928;-79
2022/11/22 11:38:42;;;;;;;;;;;7.10;99.90;;;;;;5016486;28;19925;-79
2022/11/22 11:41:17;;;;;;;;;;;7.10;99.90;;;;;;5029166;28;19921;-79
2022/11/22 11:43:43;;;;;;;;;;;7.10;99.90;;;;;;5009618;28;19922;-79
2022/11/22 11:46:29;;;;;;;;;;;7.10;99.90;;;;;;5013329;28;19929;-79
2022/11/22 11:49:07;;;;;;;;;;;7.10;99.90;;;;;;5008102;28;20080;-79
2022/11/22 11:51:43;;;;;;;;;;;7.10;99.90;;;;;;4991167;28;19987;-79
2022/11/22 11:54:08;;;;;;;;;;;7.10;99.90;;;;;;4997367;28;19922;-79
2022/11/22 11:56:39;;;;;;;;;;;7.10;99.90;;;;;;5022345;28;19932;-79
2022/11/22 11:59:18;;;;;;;;;;;7.20;99.90;;;;;;5005001;28;19922;-79
2022/11/22 12:02:03;;;;;;;;;;;7.10;99.90;;;;;;4994970;28;20015;-79
2022/11/22 12:04:31;;;;;;;;;;;7.10;99.90;;;;;;5015150;28;19928;-79
2022/11/22 12:07:01;;;;;;;;;;;7.10;99.90;;;;;;5024639;28;19925;-80
2022/11/22 12:09:34;;;;;;;;;;;7.20;99.90;;;;;;5023673;28;19927;-80
2022/11/22 12:12:10;;;;;;;;;;;7.20;99.90;;;;;;5000006;28;19929;-79
2022/11/22 12:14:36;;;;;;;;;;;7.20;99.90;;;;;;5005930;28;20430;-80
2022/11/22 12:17:05;;;;;;;;;;;7.20;99.90;;;;;;5003432;28;19925;-79
2022/11/22 12:20:09;;;;;;;;;;;7.10;99.90;;;;;;5009741;28;19921;-80
2022/11/22 12:22:34;;;;;;;;;;;7.10;99.90;;;;;;4921753;29;19922;-79
2022/11/22 12:25:07;;;;;;;;;;;7.10;99.90;;;;;;4905451;29;19930;-79
2022/11/22 12:27:33;;;;;;;;;;;7.10;99.90;;;;;;4971208;28;19929;-79
2022/11/22 12:29:59;;;;;;;;;;;7.10;99.90;;;;;;5020757;28;19947;-80
2022/11/22 12:32:27;;;;;;;;;;;7.10;99.90;;;;;;5023191;28;19925;-79
2022/11/22 12:34:55;;;;;;;;;;;7.10;99.90;;;;;;5006077;28;19975;-79
2022/11/22 12:37:27;;;;;;;;;;;7.10;99.90;;;;;;5021199;28;19929;-79
2022/11/22 12:39:55;;;;;;;;;;;8.60;99.90;;;;;;5009939;28;19953;-80
2022/11/22 12:42:26;;;;;;;;;;;7.10;99.90;;;;;;5021963;28;19977;-78
2022/11/22 12:44:55;;;;;;;;;;;7.00;99.90;;;;;;5030803;28;19940;-80
2022/11/22 12:47:22;;;;;;;;;;;7.10;99.90;;;;;;5005117;28;20026;-79
2022/11/22 12:49:52;;;;;;;;;;;7.40;99.90;;;;;;5013384;28;19930;-79
2022/11/22 12:52:33;;;;;;;;;;;7.00;99.90;;;;;;5016608;28;19964;-80
2022/11/22 12:55:04;;;;;;;;;;;7.00;99.90;;;;;;5000040;28;19975;-79
2022/11/22 12:57:36;;;;;;;;;;;7.00;99.90;;;;;;5015865;28;19991;-78
2022/11/22 13:00:11;;;;;;;;;;;7.00;99.90;;;;;;5014430;28;22041;-79
2022/11/22 13:02:56;;;;;;;;;;;7.00;99.90;;;;;;5015217;28;19921;-80
2022/11/22 13:05:30;;;;;;;;;;;7.00;99.90;;;;;;5017722;28;19925;-79
2022/11/22 13:08:07;;;;;;;;;;;6.90;99.90;;;;;;5018419;28;20430;-79
2022/11/22 13:10:38;;;;;;;;;;;6.90;99.90;;;;;;4992017;28;19952;-79
2022/11/22 13:13:08;;;;;;;;;;;6.90;99.90;;;;;;5018060;28;19968;-79
2022/11/22 13:15:36;;;;;;;;;;;7.00;99.90;;;;;;4998438;28;20425;-79
2022/11/22 13:18:06;;;;;;;;;;;6.90;99.90;;;;;;5015212;28;19921;-79
2022/11/22 13:20:36;;;;;;;;;;;6.90;99.90;;;;;;5015067;28;20008;-80
2022/11/22 13:23:02;;;;;;;;;;;6.90;99.90;;;;;;5005138;28;19921;-79
2022/11/22 13:25:43;;;;;;;;;;;6.90;99.90;;;;;;4990924;28;19928;-79
2022/11/22 13:28:12;;;;;;;;;;;6.90;99.90;;;;;;5017655;28;19925;-79
2022/11/22 13:30:40;;;;;;;;;;;7.10;99.90;;;;;;5000837;28;19921;-79
2022/11/22 13:33:21;;;;;;;;;;;6.90;99.90;;;;;;5001550;28;19956;-78
2022/11/22 13:35:47;;;;;;;;;;;6.90;99.90;;;;;;5043556;28;19919;-79
2022/11/22 13:38:14;;;;;;;;;;;7.00;99.90;;;;;;5038710;28;19941;-79
2022/11/22 13:40:43;;;;;;;;;;;7.00;99.90;;;;;;4998409;28;19939;-80
2022/11/22 13:43:12;;;;;;;;;;;7.00;99.90;;;;;;5013856;28;19944;-80
2022/11/22 13:45:51;;;;;;;;;;;6.90;99.90;;;;;;5016232;28;19978;-80
2022/11/22 13:48:35;;;;;;;;;;;6.90;99.90;;;;;;4999334;28;19928;-80
2022/11/22 13:51:01;;;;;;;;;;;6.90;99.90;;;;;;5013541;28;20392;-79
2022/11/22 13:53:27;;;;;;;;;;;6.90;99.90;;;;;;5014167;28;20020;-80
2022/11/22 13:55:54;;;;;;;;;;;6.90;99.90;;;;;;4998529;28;20060;-80
2022/11/22 13:58:22;;;;;;;;;;;7.10;99.90;;;;;;5000685;28;20016;-80
2022/11/22 14:00:48;;;;;;;;;;;6.90;99.90;;;;;;5004738;28;19921;-80
2022/11/22 14:03:20;;;;;;;;;;;6.80;99.90;;;;;;4998900;28;19944;-81
2022/11/22 14:05:47;;;;;;;;;;;6.80;99.90;;;;;;5007871;28;19932;-79
2022/11/22 14:08:33;;;;;;;;;;;6.80;99.90;;;;;;4998388;28;19921;-80
2022/11/22 14:11:04;;;;;;;;;;;6.80;99.90;;;;;;4990244;28;19972;-80
2022/11/22 14:13:37;;;;;;;;;;;6.70;99.90;;;;;;4997490;28;19975;-80
2022/11/22 14:16:18;;;;;;;;;;;6.70;99.90;;;;;;4996819;28;19929;-80
2022/11/22 14:18:44;;;;;;;;;;;6.70;99.90;;;;;;4996736;28;20370;-80
2022/11/22 14:21:12;;;;;;;;;;;6.60;99.90;;;;;;5014397;28;20032;-80
2022/11/22 14:23:59;;;;;;;;;;;6.60;99.90;;;;;;4997455;28;19928;-80
2022/11/22 14:26:32;;;;;;;;;;;6.60;99.90;;;;;;4996400;28;19928;-80
2022/11/22 14:28:58;;;;;;;;;;;6.60;99.90;;;;;;5016756;28;19928;-80
2022/11/22 14:31:28;;;;;;;;;;;6.60;99.90;;;;;;4998178;28;19921;-80
2022/11/22 14:34:12;;;;;;;;;;;6.60;99.90;;;;;;4996386;28;20181;-80
2022/11/22 14:36:38;;;;;;;;;;;6.60;99.90;;;;;;4996511;28;19925;-80
2022/11/22 14:39:23;;;;;;;;;;;6.60;99.90;;;;;;5032583;28;20373;-80
2022/11/22 14:41:48;;;;;;;;;;;6.60;99.90;;;;;;5018450;28;19922;-80
2022/11/22 14:44:18;;;;;;;;;;;6.60;99.90;;;;;;4995425;28;19921;-79
2022/11/22 14:46:55;;;;;;;;;;;6.60;99.90;;;;;;5001592;28;19932;-80
2022/11/22 14:49:29;;;;;;;;;;;6.60;99.90;;;;;;5016040;28;19925;-79
2022/11/22 14:51:55;;;;;;;;;;;6.70;99.90;;;;;;5021083;28;19991;-79